sensor_id;sensor_type;location;lat;lon;timestamp;temperature;humidity
7296;DHT22;40758;54.038;11.684;2023-01-10T00:02:09;7.40;99.90
7296;DHT22;40758;54.038;11.684;2023-01-10T00:04:38;7.30;99.90
7296;DHT22;40758;54.038;11.684;2023-01-10T00:07:07;7.30;99.90
7296;DHT22;40758;54.038;11.684;2023-01-10T00:09:35;7.30;99.90
7296;DHT22;40758;54.038;11.684;2023-01-10T00:12:04;7.30;99.90
7296;DHT22;40758;54.038;11.684;2023-01-10T00:14:50;7.30;99.90
7296;DHT22;40758;54.038;11.684;2023-01-10T00:17:18;7.30;99.90
7296;DHT22;40758;54.038;11.684;2023-01-10T00:19:49;7.30;99.90
7296;DHT22;40758;54.038;11.684;2023-01-10T00:22:17;7.30;99.90
7296;DHT22;40758;54.038;11.684;2023-01-10T00:24:51;7.30;99.90
7296;DHT22;40758;54.038;11.684;2023-01-10T00:27:19;7.20;99.90
7296;DHT22;40758;54.038;11.684;2023-01-10T00:29:49;7.20;99.90
7296;DHT22;40758;54.038;11.684;2023-01-10T00:32:20;7.20;99.90
7296;DHT22;40758;54.038;11.684;2023-01-10T00:34:50;7.20;99.90
7296;DHT22;40758;54.038;11.684;2023-01-10T00:37:18;7.20;99.90
7296;DHT22;40758;54.038;11.684;2023-01-10T00:39:46;7.10;99.90
7296;DHT22;40758;54.038;11.684;2023-01-10T00:42:14;7.00;99.90
7296;DHT22;40758;54.038;11.684;2023-01-10T00:45:00;7.10;99.90
7296;DHT22;40758;54.038;11.684;2023-01-10T00:47:29;7.10;99.90
7296;DHT22;40758;54.038;11.684;2023-01-10T00:49:59;7.10;99.90
7296;DHT22;40758;54.038;11.684;2023-01-10T00:52:27;7.20;99.90
7296;DHT22;40758;54.038;11.684;2023-01-10T00:54:55;7.20;99.90
7296;DHT22;40758;54.038;11.684;2023-01-10T00:57:24;7.10;99.90
7296;DHT22;40758;54.038;11.684;2023-01-10T00:59:52;7.10;99.90
7296;DHT22;40758;54.038;11.684;2023-01-10T01:02:20;7.20;99.90
7296;DHT22;40758;54.038;11.684;2023-01-10T01:04:49;7.30;99.90
7296;DHT22;40758;54.038;11.684;2023-01-10T01:07:19;7.40;99.90
7296;DHT22;40758;54.038;11.684;2023-01-10T01:09:47;7.40;99.90
7296;DHT22;40758;54.038;11.684;2023-01-10T01:12:33;7.50;99.90
7296;DHT22;40758;54.038;11.684;2023-01-10T01:15:01;7.40;99.90
7296;DHT22;40758;54.038;11.684;2023-01-10T01:17:30;7.50;99.90
7296;DHT22;40758;54.038;11.684;2023-01-10T01:19:58;7.50;99.90
7296;DHT22;40758;54.038;11.684;2023-01-10T01:22:28;7.50;99.90
7296;DHT22;40758;54.038;11.684;2023-01-10T01:24:56;7.50;99.90
7296;DHT22;40758;54.038;11.684;2023-01-10T01:27:24;7.50;99.90
7296;DHT22;40758;54.038;11.684;2023-01-10T01:29:53;7.50;99.90
7296;DHT22;40758;54.038;11.684;2023-01-10T01:32:21;7.50;99.90
7296;DHT22;40758;54.038;11.684;2023-01-10T01:34:50;7.50;99.90
7296;DHT22;40758;54.038;11.684;2023-01-10T01:37:18;7.50;99.90
7296;DHT22;40758;54.038;11.684;2023-01-10T01:39:48;7.40;99.90
7296;DHT22;40758;54.038;11.684;2023-01-10T01:42:22;7.40;99.90
7296;DHT22;40758;54.038;11.684;2023-01-10T01:45:25;7.40;99.90
7296;DHT22;40758;54.038;11.684;2023-01-10T01:48:06;7.30;99.90
7296;DHT22;40758;54.038;11.684;2023-01-10T01:50:54;7.30;99.90
7296;DHT22;40758;54.038;11.684;2023-01-10T01:53:33;7.30;99.90
7296;DHT22;40758;54.038;11.684;2023-01-10T01:56:12;7.20;99.90
7296;DHT22;40758;54.038;11.684;2023-01-10T01:58:48;7.20;99.90
7296;DHT22;40758;54.038;11.684;2023-01-10T02:01:20;7.20;99.90
7296;DHT22;40758;54.038;11.684;2023-01-10T02:03:52;7.10;99.90
7296;DHT22;40758;54.038;11.684;2023-01-10T02:06:25;7.10;99.90
7296;DHT22;40758;54.038;11.684;2023-01-10T02:08:58;7.00;99.90
7296;DHT22;40758;54.038;11.684;2023-01-10T02:11:35;6.90;99.90
7296;DHT22;40758;54.038;11.684;2023-01-10T02:14:04;7.00;99.90
7296;DHT22;40758;54.038;11.684;2023-01-10T02:16:34;7.00;99.90
7296;DHT22;40758;54.038;11.684;2023-01-10T02:19:03;7.00;99.90
7296;DHT22;40758;54.038;11.684;2023-01-10T02:21:55;7.00;99.90
7296;DHT22;40758;54.038;11.684;2023-01-10T02:28:33;7.20;99.90
7296;DHT22;40758;54.038;11.684;2023-01-10T02:31:35;7.20;99.90
7296;DHT22;40758;54.038;11.684;2023-01-10T02:34:13;7.20;99.90
7296;DHT22;40758;54.038;11.684;2023-01-10T02:36:59;7.20;99.90
7296;DHT22;40758;54.038;11.684;2023-01-10T02:39:49;7.20;99.90
7296;DHT22;40758;54.038;11.684;2023-01-10T02:42:29;7.30;99.90
7296;DHT22;40758;54.038;11.684;2023-01-10T02:45:07;7.30;99.90
7296;DHT22;40758;54.038;11.684;2023-01-10T02:47:40;7.30;99.90
7296;DHT22;40758;54.038;11.684;2023-01-10T02:53:26;7.40;99.90
7296;DHT22;40758;54.038;11.684;2023-01-10T02:56:09;7.50;99.90
7296;DHT22;40758;54.038;11.684;2023-01-10T02:59:13;7.50;99.90
7296;DHT22;40758;54.038;11.684;2023-01-10T03:01:59;7.50;99.90
7296;DHT22;40758;54.038;11.684;2023-01-10T03:04:45;7.50;99.90
7296;DHT22;40758;54.038;11.684;2023-01-10T03:07:26;7.50;99.90
7296;DHT22;40758;54.038;11.684;2023-01-10T03:10:05;7.50;99.90
7296;DHT22;40758;54.038;11.684;2023-01-10T03:12:40;7.50;99.90
7296;DHT22;40758;54.038;11.684;2023-01-10T03:15:17;7.60;99.90
7296;DHT22;40758;54.038;11.684;2023-01-10T03:17:50;7.60;99.90
7296;DHT22;40758;54.038;11.684;2023-01-10T03:20:23;7.60;99.90
7296;DHT22;40758;54.038;11.684;2023-01-10T03:22:55;7.60;99.90
7296;DHT22;40758;54.038;11.684;2023-01-10T03:25:26;7.60;99.90
7296;DHT22;40758;54.038;11.684;2023-01-10T03:28:04;7.60;99.90
7296;DHT22;40758;54.038;11.684;2023-01-10T03:30:41;7.60;99.90
7296;DHT22;40758;54.038;11.684;2023-01-10T03:33:17;7.60;99.90
7296;DHT22;40758;54.038;11.684;2023-01-10T03:36:03;7.70;99.90
7296;DHT22;40758;54.038;11.684;2023-01-10T03:38:46;7.60;99.90
7296;DHT22;40758;54.038;11.684;2023-01-10T03:41:28;7.70;99.90
7296;DHT22;40758;54.038;11.684;2023-01-10T03:44:11;7.70;99.90
7296;DHT22;40758;54.038;11.684;2023-01-10T03:47:06;7.70;99.90
7296;DHT22;40758;54.038;11.684;2023-01-10T03:49:40;7.60;99.90
7296;DHT22;40758;54.038;11.684;2023-01-10T03:52:12;7.70;99.90
7296;DHT22;40758;54.038;11.684;2023-01-10T03:54:44;7.70;99.90
7296;DHT22;40758;54.038;11.684;2023-01-10T03:57:16;7.60;99.90
7296;DHT22;40758;54.038;11.684;2023-01-10T03:59:46;7.70;99.90
7296;DHT22;40758;54.038;11.684;2023-01-10T04:02:17;7.60;99.90
7296;DHT22;40758;54.038;11.684;2023-01-10T04:04:45;7.70;99.90
7296;DHT22;40758;54.038;11.684;2023-01-10T04:07:14;7.60;99.90
7296;DHT22;40758;54.038;11.684;2023-01-10T04:09:43;7.60;99.90
7296;DHT22;40758;54.038;11.684;2023-01-10T04:12:12;7.60;99.90
7296;DHT22;40758;54.038;11.684;2023-01-10T04:14:40;7.60;99.90
7296;DHT22;40758;54.038;11.684;2023-01-10T04:17:09;7.60;99.90
7296;DHT22;40758;54.038;11.684;2023-01-10T04:19:38;7.60;99.90
7296;DHT22;40758;54.038;11.684;2023-01-10T04:22:06;7.50;99.90
7296;DHT22;40758;54.038;11.684;2023-01-10T04:24:35;7.60;99.90
7296;DHT22;40758;54.038;11.684;2023-01-10T04:27:05;7.60;99.90
7296;DHT22;40758;54.038;11.684;2023-01-10T04:29:34;7.60;99.90
7296;DHT22;40758;54.038;11.684;2023-01-10T04:32:02;7.60;99.90
7296;DHT22;40758;54.038;11.684;2023-01-10T04:34:31;7.60;99.90
7296;DHT22;40758;54.038;11.684;2023-01-10T04:36:59;7.50;99.90
7296;DHT22;40758;54.038;11.684;2023-01-10T04:39:27;7.50;99.90
7296;DHT22;40758;54.038;11.684;2023-01-10T04:41:56;7.40;99.90
7296;DHT22;40758;54.038;11.684;2023-01-10T04:44:25;7.40;99.90
7296;DHT22;40758;54.038;11.684;2023-01-10T04:46:54;7.40;99.90
7296;DHT22;40758;54.038;11.684;2023-01-10T04:49:22;7.40;99.90
7296;DHT22;40758;54.038;11.684;2023-01-10T04:51:50;7.40;99.90
7296;DHT22;40758;54.038;11.684;2023-01-10T04:54:19;7.50;99.90
7296;DHT22;40758;54.038;11.684;2023-01-10T04:56:48;7.50;99.90
7296;DHT22;40758;54.038;11.684;2023-01-10T04:59:16;7.50;99.90
7296;DHT22;40758;54.038;11.684;2023-01-10T05:01:46;7.50;99.90
7296;DHT22;40758;54.038;11.684;2023-01-10T05:04:15;7.40;99.90
7296;DHT22;40758;54.038;11.684;2023-01-10T05:06:46;7.40;99.90
7296;DHT22;40758;54.038;11.684;2023-01-10T05:09:15;7.40;99.90
7296;DHT22;40758;54.038;11.684;2023-01-10T05:11:43;7.40;99.90
7296;DHT22;40758;54.038;11.684;2023-01-10T05:14:12;7.40;99.90
7296;DHT22;40758;54.038;11.684;2023-01-10T05:16:40;7.40;99.90
7296;DHT22;40758;54.038;11.684;2023-01-10T05:19:10;7.30;99.90
7296;DHT22;40758;54.038;11.684;2023-01-10T05:21:38;7.20;99.90
7296;DHT22;40758;54.038;11.684;2023-01-10T05:24:08;7.10;99.90
7296;DHT22;40758;54.038;11.684;2023-01-10T05:26:36;7.10;99.90
7296;DHT22;40758;54.038;11.684;2023-01-10T05:29:04;7.10;99.90
7296;DHT22;40758;54.038;11.684;2023-01-10T05:31:33;7.10;99.90
7296;DHT22;40758;54.038;11.684;2023-01-10T05:34:01;7.20;99.90
7296;DHT22;40758;54.038;11.684;2023-01-10T05:36:31;7.10;99.90
7296;DHT22;40758;54.038;11.684;2023-01-10T05:38:59;7.10;99.90
7296;DHT22;40758;54.038;11.684;2023-01-10T05:41:28;7.10;99.90
7296;DHT22;40758;54.038;11.684;2023-01-10T05:43:56;7.20;99.90
7296;DHT22;40758;54.038;11.684;2023-01-10T05:46:24;7.20;99.90
7296;DHT22;40758;54.038;11.684;2023-01-10T05:48:53;7.20;99.90
7296;DHT22;40758;54.038;11.684;2023-01-10T05:51:21;7.30;99.90
7296;DHT22;40758;54.038;11.684;2023-01-10T05:53:51;7.30;99.90
7296;DHT22;40758;54.038;11.684;2023-01-10T05:56:19;7.30;99.90
7296;DHT22;40758;54.038;11.684;2023-01-10T05:58:47;7.30;99.90
7296;DHT22;40758;54.038;11.684;2023-01-10T06:01:30;7.40;99.90
7296;DHT22;40758;54.038;11.684;2023-01-10T06:03:58;7.40;99.90
7296;DHT22;40758;54.038;11.684;2023-01-10T06:06:27;7.40;99.90
7296;DHT22;40758;54.038;11.684;2023-01-10T06:08:56;7.40;99.90
7296;DHT22;40758;54.038;11.684;2023-01-10T06:11:25;7.40;99.90
7296;DHT22;40758;54.038;11.684;2023-01-10T06:13:56;7.40;99.90
7296;DHT22;40758;54.038;11.684;2023-01-10T06:16:24;7.40;99.90
7296;DHT22;40758;54.038;11.684;2023-01-10T06:18:52;7.40;99.90
7296;DHT22;40758;54.038;11.684;2023-01-10T06:21:21;7.40;99.90
7296;DHT22;40758;54.038;11.684;2023-01-10T06:23:49;7.40;99.90
7296;DHT22;40758;54.038;11.684;2023-01-10T06:26:19;7.40;99.90
7296;DHT22;40758;54.038;11.684;2023-01-10T06:28:47;7.40;99.90
7296;DHT22;40758;54.038;11.684;2023-01-10T06:31:16;7.40;99.90
7296;DHT22;40758;54.038;11.684;2023-01-10T06:33:49;7.40;99.90
7296;DHT22;40758;54.038;11.684;2023-01-10T06:36:18;7.40;99.90
7296;DHT22;40758;54.038;11.684;2023-01-10T06:38:47;7.40;99.90
7296;DHT22;40758;54.038;11.684;2023-01-10T06:41:15;7.40;99.90
7296;DHT22;40758;54.038;11.684;2023-01-10T06:43:46;7.40;99.90
7296;DHT22;40758;54.038;11.684;2023-01-10T06:46:17;7.40;99.90
7296;DHT22;40758;54.038;11.684;2023-01-10T06:48:46;7.40;99.90
7296;DHT22;40758;54.038;11.684;2023-01-10T06:51:16;7.40;99.90
7296;DHT22;40758;54.038;11.684;2023-01-10T06:53:46;7.40;99.90
7296;DHT22;40758;54.038;11.684;2023-01-10T06:56:14;7.30;99.90
7296;DHT22;40758;54.038;11.684;2023-01-10T06:58:43;7.30;99.90
7296;DHT22;40758;54.038;11.684;2023-01-10T07:01:16;7.30;99.90
7296;DHT22;40758;54.038;11.684;2023-01-10T07:03:47;7.30;99.90
7296;DHT22;40758;54.038;11.684;2023-01-10T07:06:15;7.30;99.90
7296;DHT22;40758;54.038;11.684;2023-01-10T07:08:45;7.30;99.90
7296;DHT22;40758;54.038;11.684;2023-01-10T07:11:14;7.20;99.90
7296;DHT22;40758;54.038;11.684;2023-01-10T07:13:45;7.20;99.90
7296;DHT22;40758;54.038;11.684;2023-01-10T07:16:14;7.20;99.90
7296;DHT22;40758;54.038;11.684;2023-01-10T07:18:43;7.20;99.90
7296;DHT22;40758;54.038;11.684;2023-01-10T07:21:12;7.10;99.90
7296;DHT22;40758;54.038;11.684;2023-01-10T07:23:41;7.10;99.90
7296;DHT22;40758;54.038;11.684;2023-01-10T07:26:10;7.10;99.90
7296;DHT22;40758;54.038;11.684;2023-01-10T07:28:46;7.10;99.90
7296;DHT22;40758;54.038;11.684;2023-01-10T07:31:17;7.10;99.90
7296;DHT22;40758;54.038;11.684;2023-01-10T07:33:49;7.10;99.90
7296;DHT22;40758;54.038;11.684;2023-01-10T07:36:19;7.10;99.90
7296;DHT22;40758;54.038;11.684;2023-01-10T07:38:47;7.10;99.90
7296;DHT22;40758;54.038;11.684;2023-01-10T07:41:15;7.10;99.90
7296;DHT22;40758;54.038;11.684;2023-01-10T07:43:45;7.10;99.90
7296;DHT22;40758;54.038;11.684;2023-01-10T07:46:14;7.10;99.90
7296;DHT22;40758;54.038;11.684;2023-01-10T07:48:43;7.00;99.90
7296;DHT22;40758;54.038;11.684;2023-01-10T07:51:12;7.00;99.90
7296;DHT22;40758;54.038;11.684;2023-01-10T07:53:40;7.00;99.90
7296;DHT22;40758;54.038;11.684;2023-01-10T07:56:09;7.00;99.90
7296;DHT22;40758;54.038;11.684;2023-01-10T07:58:37;7.00;99.90
7296;DHT22;40758;54.038;11.684;2023-01-10T08:01:07;7.00;99.90
7296;DHT22;40758;54.038;11.684;2023-01-10T08:03:35;7.10;99.90
7296;DHT22;40758;54.038;11.684;2023-01-10T08:06:05;7.10;99.90
7296;DHT22;40758;54.038;11.684;2023-01-10T08:08:36;7.10;99.90
7296;DHT22;40758;54.038;11.684;2023-01-10T08:11:04;7.10;99.90
7296;DHT22;40758;54.038;11.684;2023-01-10T08:13:33;7.20;99.90
7296;DHT22;40758;54.038;11.684;2023-01-10T08:16:04;7.20;99.90
7296;DHT22;40758;54.038;11.684;2023-01-10T08:18:34;7.20;99.90
7296;DHT22;40758;54.038;11.684;2023-01-10T08:21:04;7.30;99.90
7296;DHT22;40758;54.038;11.684;2023-01-10T08:23:33;7.30;99.90
7296;DHT22;40758;54.038;11.684;2023-01-10T08:26:02;7.30;99.90
7296;DHT22;40758;54.038;11.684;2023-01-10T08:28:31;7.30;99.90
7296;DHT22;40758;54.038;11.684;2023-01-10T08:31:04;7.40;99.90
7296;DHT22;40758;54.038;11.684;2023-01-10T08:33:36;7.40;99.90
7296;DHT22;40758;54.038;11.684;2023-01-10T08:36:12;7.40;99.90
7296;DHT22;40758;54.038;11.684;2023-01-10T08:38:42;7.40;99.90
7296;DHT22;40758;54.038;11.684;2023-01-10T08:41:10;7.30;99.90
7296;DHT22;40758;54.038;11.684;2023-01-10T08:43:39;7.30;99.90
7296;DHT22;40758;54.038;11.684;2023-01-10T08:46:07;7.20;99.90
7296;DHT22;40758;54.038;11.684;2023-01-10T08:48:38;7.20;99.90
7296;DHT22;40758;54.038;11.684;2023-01-10T08:51:07;7.20;99.90
7296;DHT22;40758;54.038;11.684;2023-01-10T08:53:38;7.20;99.90
7296;DHT22;40758;54.038;11.684;2023-01-10T08:56:07;7.20;99.90
7296;DHT22;40758;54.038;11.684;2023-01-10T08:58:36;7.20;99.90
7296;DHT22;40758;54.038;11.684;2023-01-10T09:01:05;7.20;99.90
7296;DHT22;40758;54.038;11.684;2023-01-10T09:03:34;7.20;99.90
7296;DHT22;40758;54.038;11.684;2023-01-10T09:06:04;7.20;99.90
7296;DHT22;40758;54.038;11.684;2023-01-10T09:08:34;7.20;99.90
7296;DHT22;40758;54.038;11.684;2023-01-10T09:11:03;7.10;99.90
7296;DHT22;40758;54.038;11.684;2023-01-10T09:13:32;7.10;99.90
7296;DHT22;40758;54.038;11.684;2023-01-10T09:16:01;7.10;99.90
7296;DHT22;40758;54.038;11.684;2023-01-10T09:18:29;7.20;99.90
7296;DHT22;40758;54.038;11.684;2023-01-10T09:20:57;7.30;99.90
7296;DHT22;40758;54.038;11.684;2023-01-10T09:23:27;7.40;99.90
7296;DHT22;40758;54.038;11.684;2023-01-10T09:25:56;7.40;99.90
7296;DHT22;40758;54.038;11.684;2023-01-10T09:28:24;7.40;99.90
7296;DHT22;40758;54.038;11.684;2023-01-10T09:30:53;7.50;99.90
7296;DHT22;40758;54.038;11.684;2023-01-10T09:33:23;7.60;99.90
7296;DHT22;40758;54.038;11.684;2023-01-10T09:35:57;7.60;99.90
7296;DHT22;40758;54.038;11.684;2023-01-10T09:38:28;7.50;99.90
7296;DHT22;40758;54.038;11.684;2023-01-10T09:44:04;7.30;99.90
7296;DHT22;40758;54.038;11.684;2023-01-10T09:46:50;7.20;99.90
7296;DHT22;40758;54.038;11.684;2023-01-10T09:49:42;7.20;99.90
7296;DHT22;40758;54.038;11.684;2023-01-10T09:52:20;7.30;99.90
7296;DHT22;40758;54.038;11.684;2023-01-10T09:54:56;7.60;99.90
7296;DHT22;40758;54.038;11.684;2023-01-10T09:57:27;7.60;99.90
7296;DHT22;40758;54.038;11.684;2023-01-10T09:59:56;7.70;99.90
7296;DHT22;40758;54.038;11.684;2023-01-10T10:02:31;7.70;99.90
7296;DHT22;40758;54.038;11.684;2023-01-10T10:05:08;7.70;99.90
7296;DHT22;40758;54.038;11.684;2023-01-10T10:07:40;8.00;99.90
7296;DHT22;40758;54.038;11.684;2023-01-10T10:10:16;8.30;99.90
7296;DHT22;40758;54.038;11.684;2023-01-10T10:12:59;8.30;99.90
7296;DHT22;40758;54.038;11.684;2023-01-10T10:15:47;8.10;99.90
7296;DHT22;40758;54.038;11.684;2023-01-10T10:18:30;8.10;99.90
7296;DHT22;40758;54.038;11.684;2023-01-10T10:21:14;8.00;99.90
7296;DHT22;40758;54.038;11.684;2023-01-10T10:24:20;7.90;99.90
7296;DHT22;40758;54.038;11.684;2023-01-10T10:27:07;8.20;99.90
7296;DHT22;40758;54.038;11.684;2023-01-10T10:30:00;8.70;99.90
7296;DHT22;40758;54.038;11.684;2023-01-10T10:32:50;9.10;99.90
7296;DHT22;40758;54.038;11.684;2023-01-10T10:35:32;9.20;99.90
7296;DHT22;40758;54.038;11.684;2023-01-10T10:38:13;9.60;99.90
7296;DHT22;40758;54.038;11.684;2023-01-10T10:40:49;9.80;99.90
7296;DHT22;40758;54.038;11.684;2023-01-10T10:43:25;10.10;99.90
7296;DHT22;40758;54.038;11.684;2023-01-10T10:46:01;10.30;99.90
7296;DHT22;40758;54.038;11.684;2023-01-10T10:48:38;10.60;99.90
7296;DHT22;40758;54.038;11.684;2023-01-10T10:51:15;10.70;99.90
7296;DHT22;40758;54.038;11.684;2023-01-10T10:53:51;10.80;99.90
7296;DHT22;40758;54.038;11.684;2023-01-10T10:56:26;11.00;99.90
7296;DHT22;40758;54.038;11.684;2023-01-10T10:58:58;10.80;99.90
7296;DHT22;40758;54.038;11.684;2023-01-10T11:01:29;10.60;99.90
7296;DHT22;40758;54.038;11.684;2023-01-10T11:04:01;10.20;99.90
7296;DHT22;40758;54.038;11.684;2023-01-10T11:06:36;10.00;99.90
7296;DHT22;40758;54.038;11.684;2023-01-10T11:09:08;9.90;99.90
7296;DHT22;40758;54.038;11.684;2023-01-10T11:11:43;9.70;99.90
7296;DHT22;40758;54.038;11.684;2023-01-10T11:14:39;9.40;99.90
7296;DHT22;40758;54.038;11.684;2023-01-10T11:17:24;9.20;99.90
7296;DHT22;40758;54.038;11.684;2023-01-10T11:20:00;8.80;99.90
7296;DHT22;40758;54.038;11.684;2023-01-10T11:22:37;8.70;99.90
7296;DHT22;40758;54.038;11.684;2023-01-10T11:25:14;8.60;99.90
7296;DHT22;40758;54.038;11.684;2023-01-10T11:27:49;8.60;99.90
7296;DHT22;40758;54.038;11.684;2023-01-10T11:30:24;8.60;99.90
7296;DHT22;40758;54.038;11.684;2023-01-10T11:32:59;8.60;99.90
7296;DHT22;40758;54.038;11.684;2023-01-10T11:35:31;8.40;99.90
7296;DHT22;40758;54.038;11.684;2023-01-10T11:38:05;8.40;99.90
7296;DHT22;40758;54.038;11.684;2023-01-10T11:40:53;8.40;99.90
7296;DHT22;40758;54.038;11.684;2023-01-10T11:43:30;8.40;99.90
7296;DHT22;40758;54.038;11.684;2023-01-10T11:46:03;8.30;99.90
7296;DHT22;40758;54.038;11.684;2023-01-10T11:48:42;8.20;99.90
7296;DHT22;40758;54.038;11.684;2023-01-10T11:51:35;8.10;99.90
7296;DHT22;40758;54.038;11.684;2023-01-10T11:54:10;8.10;99.90
7296;DHT22;40758;54.038;11.684;2023-01-10T11:56:53;8.00;99.90
7296;DHT22;40758;54.038;11.684;2023-01-10T11:59:25;8.00;99.90
7296;DHT22;40758;54.038;11.684;2023-01-10T12:01:59;8.00;99.90
7296;DHT22;40758;54.038;11.684;2023-01-10T12:04:33;7.90;99.90
7296;DHT22;40758;54.038;11.684;2023-01-10T12:07:10;7.90;99.90
7296;DHT22;40758;54.038;11.684;2023-01-10T12:09:40;7.90;99.90
7296;DHT22;40758;54.038;11.684;2023-01-10T12:12:17;7.90;99.90
7296;DHT22;40758;54.038;11.684;2023-01-10T12:14:48;7.90;99.90
7296;DHT22;40758;54.038;11.684;2023-01-10T12:17:23;7.90;99.90
7296;DHT22;40758;54.038;11.684;2023-01-10T12:19:54;8.00;99.90
7296;DHT22;40758;54.038;11.684;2023-01-10T12:22:29;8.00;99.90
7296;DHT22;40758;54.038;11.684;2023-01-10T12:25:04;8.00;99.90
7296;DHT22;40758;54.038;11.684;2023-01-10T12:27:41;8.00;99.90
7296;DHT22;40758;54.038;11.684;2023-01-10T12:30:16;8.10;99.90
7296;DHT22;40758;54.038;11.684;2023-01-10T12:32:53;8.00;99.90
7296;DHT22;40758;54.038;11.684;2023-01-10T12:35:35;8.00;99.90
7296;DHT22;40758;54.038;11.684;2023-01-10T12:38:19;8.00;99.90
7296;DHT22;40758;54.038;11.684;2023-01-10T12:41:10;8.00;99.90
7296;DHT22;40758;54.038;11.684;2023-01-10T12:44:06;8.10;99.90
7296;DHT22;40758;54.038;11.684;2023-01-10T12:46:44;8.10;99.90
7296;DHT22;40758;54.038;11.684;2023-01-10T12:49:37;8.00;99.90
7296;DHT22;40758;54.038;11.684;2023-01-10T12:52:15;8.00;99.90
7296;DHT22;40758;54.038;11.684;2023-01-10T12:54:49;8.10;99.90
7296;DHT22;40758;54.038;11.684;2023-01-10T12:57:25;8.10;99.90
7296;DHT22;40758;54.038;11.684;2023-01-10T13:00:00;8.10;99.90
7296;DHT22;40758;54.038;11.684;2023-01-10T13:02:46;8.20;99.90
7296;DHT22;40758;54.038;11.684;2023-01-10T13:05:22;8.20;99.90
7296;DHT22;40758;54.038;11.684;2023-01-10T13:07:55;8.20;99.90
7296;DHT22;40758;54.038;11.684;2023-01-10T13:10:30;8.20;99.90
7296;DHT22;40758;54.038;11.684;2023-01-10T13:13:11;8.20;99.90
7296;DHT22;40758;54.038;11.684;2023-01-10T13:15:50;8.10;99.90
7296;DHT22;40758;54.038;11.684;2023-01-10T13:18:26;8.10;99.90
7296;DHT22;40758;54.038;11.684;2023-01-10T13:21:04;8.00;99.90
7296;DHT22;40758;54.038;11.684;2023-01-10T13:23:44;8.00;99.90
7296;DHT22;40758;54.038;11.684;2023-01-10T13:26:17;8.00;99.90
7296;DHT22;40758;54.038;11.684;2023-01-10T13:28:54;8.00;99.90
7296;DHT22;40758;54.038;11.684;2023-01-10T13:31:27;8.00;99.90
7296;DHT22;40758;54.038;11.684;2023-01-10T13:34:00;8.00;99.90
7296;DHT22;40758;54.038;11.684;2023-01-10T13:36:37;8.00;99.90
7296;DHT22;40758;54.038;11.684;2023-01-10T13:39:20;8.00;99.90
7296;DHT22;40758;54.038;11.684;2023-01-10T13:42:21;8.00;99.90
7296;DHT22;40758;54.038;11.684;2023-01-10T13:45:17;8.00;99.90
7296;DHT22;40758;54.038;11.684;2023-01-10T13:53:55;8.00;99.90
7296;DHT22;40758;54.038;11.684;2023-01-10T13:56:31;8.00;99.90
7296;DHT22;40758;54.038;11.684;2023-01-10T13:59:02;8.00;99.90
7296;DHT22;40758;54.038;11.684;2023-01-10T14:01:51;8.00;99.90
7296;DHT22;40758;54.038;11.684;2023-01-10T14:04:39;8.00;99.90
7296;DHT22;40758;54.038;11.684;2023-01-10T14:07:21;8.10;99.90
7296;DHT22;40758;54.038;11.684;2023-01-10T14:10:00;8.10;99.90
7296;DHT22;40758;54.038;11.684;2023-01-10T14:12:33;8.10;99.90
7296;DHT22;40758;54.038;11.684;2023-01-10T14:15:20;8.10;99.90
7296;DHT22;40758;54.038;11.684;2023-01-10T14:17:58;8.10;99.90
7296;DHT22;40758;54.038;11.684;2023-01-10T14:20:30;8.10;99.90
7296;DHT22;40758;54.038;11.684;2023-01-10T14:23:05;7.90;99.90
7296;DHT22;40758;54.038;11.684;2023-01-10T14:25:37;7.90;99.90
7296;DHT22;40758;54.038;11.684;2023-01-10T14:28:16;7.80;99.90
7296;DHT22;40758;54.038;11.684;2023-01-10T14:30:58;7.70;99.90
7296;DHT22;40758;54.038;11.684;2023-01-10T14:33:29;7.80;99.90
7296;DHT22;40758;54.038;11.684;2023-01-10T14:36:03;7.70;99.90
7296;DHT22;40758;54.038;11.684;2023-01-10T14:38:37;7.60;99.90
7296;DHT22;40758;54.038;11.684;2023-01-10T14:41:11;7.70;99.90
7296;DHT22;40758;54.038;11.684;2023-01-10T14:43:52;7.70;99.90
7296;DHT22;40758;54.038;11.684;2023-01-10T14:46:28;7.70;99.90
7296;DHT22;40758;54.038;11.684;2023-01-10T14:49:01;7.70;99.90
7296;DHT22;40758;54.038;11.684;2023-01-10T14:51:45;7.70;99.90
7296;DHT22;40758;54.038;11.684;2023-01-10T14:54:18;7.60;99.90
7296;DHT22;40758;54.038;11.684;2023-01-10T14:56:51;7.60;99.90
7296;DHT22;40758;54.038;11.684;2023-01-10T14:59:25;7.60;99.90
7296;DHT22;40758;54.038;11.684;2023-01-10T15:01:57;7.60;99.90
7296;DHT22;40758;54.038;11.684;2023-01-10T15:04:29;7.50;99.90
7296;DHT22;40758;54.038;11.684;2023-01-10T15:07:01;7.50;99.90
7296;DHT22;40758;54.038;11.684;2023-01-10T15:09:37;7.50;99.90
7296;DHT22;40758;54.038;11.684;2023-01-10T15:12:11;7.40;99.90
7296;DHT22;40758;54.038;11.684;2023-01-10T15:14:42;7.40;99.90
7296;DHT22;40758;54.038;11.684;2023-01-10T15:17:14;7.40;99.90
7296;DHT22;40758;54.038;11.684;2023-01-10T15:19:49;7.40;99.90
7296;DHT22;40758;54.038;11.684;2023-01-10T15:22:27;7.40;99.90
7296;DHT22;40758;54.038;11.684;2023-01-10T15:24:58;7.40;99.90
7296;DHT22;40758;54.038;11.684;2023-01-10T15:27:29;7.30;99.90
7296;DHT22;40758;54.038;11.684;2023-01-10T15:29:59;7.30;99.90
7296;DHT22;40758;54.038;11.684;2023-01-10T15:32:32;7.30;99.90
7296;DHT22;40758;54.038;11.684;2023-01-10T15:35:05;7.30;99.90
7296;DHT22;40758;54.038;11.684;2023-01-10T15:37:47;7.30;99.90
7296;DHT22;40758;54.038;11.684;2023-01-10T15:40:21;7.30;99.90
7296;DHT22;40758;54.038;11.684;2023-01-10T15:43:20;7.30;99.90
7296;DHT22;40758;54.038;11.684;2023-01-10T15:45:51;7.30;99.90
7296;DHT22;40758;54.038;11.684;2023-01-10T15:48:30;7.30;99.90
7296;DHT22;40758;54.038;11.684;2023-01-10T15:51:00;7.30;99.90
7296;DHT22;40758;54.038;11.684;2023-01-10T15:53:55;7.30;99.90
7296;DHT22;40758;54.038;11.684;2023-01-10T15:56:32;7.20;99.90
7296;DHT22;40758;54.038;11.684;2023-01-10T15:59:18;7.20;99.90
7296;DHT22;40758;54.038;11.684;2023-01-10T16:01:53;7.20;99.90
7296;DHT22;40758;54.038;11.684;2023-01-10T16:04:23;7.20;99.90
7296;DHT22;40758;54.038;11.684;2023-01-10T16:06:54;7.20;99.90
7296;DHT22;40758;54.038;11.684;2023-01-10T16:09:33;7.20;99.90
7296;DHT22;40758;54.038;11.684;2023-01-10T16:12:03;7.20;99.90
7296;DHT22;40758;54.038;11.684;2023-01-10T16:14:55;7.20;99.90
7296;DHT22;40758;54.038;11.684;2023-01-10T16:17:23;7.20;99.90
7296;DHT22;40758;54.038;11.684;2023-01-10T16:19:52;7.20;99.90
7296;DHT22;40758;54.038;11.684;2023-01-10T16:22:21;7.20;99.90
7296;DHT22;40758;54.038;11.684;2023-01-10T16:24:49;7.20;99.90
7296;DHT22;40758;54.038;11.684;2023-01-10T16:27:18;7.20;99.90
7296;DHT22;40758;54.038;11.684;2023-01-10T16:29:47;7.20;99.90
7296;DHT22;40758;54.038;11.684;2023-01-10T16:32:16;7.20;99.90
7296;DHT22;40758;54.038;11.684;2023-01-10T16:34:44;7.20;99.90
7296;DHT22;40758;54.038;11.684;2023-01-10T16:37:13;7.20;99.90
7296;DHT22;40758;54.038;11.684;2023-01-10T16:39:41;7.20;99.90
7296;DHT22;40758;54.038;11.684;2023-01-10T16:42:10;7.20;99.90
7296;DHT22;40758;54.038;11.684;2023-01-10T16:44:55;7.20;99.90